createdAt,value
2018-12-16T00:00:29.056Z,97172.70
2018-12-16T00:02:56.471Z,97163.00
2018-12-16T00:05:23.876Z,97165.48
2018-12-16T00:07:51.998Z,97167.80
2018-12-16T00:10:19.510Z,97166.50
2018-12-16T00:12:47.110Z,97178.55
2018-12-16T00:15:14.888Z,97172.87
2018-12-16T00:17:42.739Z,97161.55
2018-12-16T00:20:13.931Z,97153.11
2018-12-16T00:22:41.440Z,97157.47
2018-12-16T00:25:08.870Z,97155.55
2018-12-16T00:27:36.503Z,97148.91
2018-12-16T00:30:04.012Z,97135.51
2018-12-16T00:32:34.175Z,97128.94
2018-12-16T00:35:03.427Z,97104.45
2018-12-16T00:37:31.453Z,97109.88
2018-12-16T00:39:59.295Z,97106.06
2018-12-16T00:42:26.932Z,97111.03
2018-12-16T00:44:54.980Z,97120.27
2018-12-16T00:47:22.547Z,97117.72
2018-12-16T00:49:51.033Z,97097.39
2018-12-16T00:52:19.418Z,97083.42
2018-12-16T00:54:50.574Z,97093.14
2018-12-16T00:57:18.048Z,97091.64
2018-12-16T00:59:45.499Z,97093.31
2018-12-16T01:02:18.671Z,97090.52
2018-12-16T01:04:46.150Z,97084.83
2018-12-16T01:07:14.210Z,97077.03
2018-12-16T01:09:42.519Z,97076.80
2018-12-16T01:12:09.984Z,97081.68
2018-12-16T01:14:38.022Z,97073.50
2018-12-16T01:17:06.122Z,97075.22
2018-12-16T01:19:33.535Z,97076.76
2018-12-16T01:22:00.990Z,97081.89
2018-12-16T01:24:28.429Z,97069.28
2018-12-16T01:26:55.876Z,97080.81
2018-12-16T01:29:23.276Z,97084.63
2018-12-16T01:31:50.696Z,97066.38
2018-12-16T01:34:18.098Z,97067.81
2018-12-16T01:36:45.528Z,97060.89
2018-12-16T01:39:12.936Z,97057.44
2018-12-16T01:41:40.350Z,97056.70
2018-12-16T01:44:08.092Z,97047.20
2018-12-16T01:46:35.543Z,97048.70
2018-12-16T01:49:04.912Z,97058.02
2018-12-16T01:51:32.313Z,97066.17
2018-12-16T01:53:59.742Z,97056.73
2018-12-16T01:56:27.253Z,97054.36
2018-12-16T01:58:54.727Z,97049.26
2018-12-16T02:01:22.276Z,97048.53
2018-12-16T02:03:49.702Z,97041.37
2018-12-16T02:06:17.800Z,97049.05
2018-12-16T02:08:45.445Z,97036.46
2018-12-16T02:11:12.934Z,97027.31
2018-12-16T02:13:40.560Z,97019.63
2018-12-16T02:16:08.103Z,97033.52
2018-12-16T02:18:36.207Z,97024.84
2018-12-16T02:21:08.222Z,97011.91
2018-12-16T02:23:36.934Z,97002.89
2018-12-16T02:26:04.896Z,97005.02
2018-12-16T02:28:33.034Z,96999.73
2018-12-16T02:31:00.556Z,96998.89
2018-12-16T02:33:29.492Z,96997.75
2018-12-16T02:35:57.048Z,97002.25
2018-12-16T02:38:24.728Z,97001.98
2018-12-16T02:40:52.138Z,97008.18
2018-12-16T02:43:19.629Z,97003.42
2018-12-16T02:45:47.890Z,96992.20
2018-12-16T02:48:15.577Z,96987.75
2018-12-16T02:50:43.225Z,96992.05
2018-12-16T02:53:13.031Z,96987.18
2018-12-16T02:55:40.671Z,96977.33
2018-12-16T02:58:08.969Z,96987.07
2018-12-16T03:00:37.177Z,96983.00
2018-12-16T03:03:07.054Z,96980.56
2018-12-16T03:05:36.082Z,96976.38
2018-12-16T03:08:05.200Z,96969.19
2018-12-16T03:10:33.901Z,96966.14
2018-12-16T03:13:06.660Z,96977.86
2018-12-16T03:15:34.322Z,96979.95
2018-12-16T03:18:03.043Z,96982.62
2018-12-16T03:20:30.923Z,96974.25
2018-12-16T03:22:59.283Z,96978.55
2018-12-16T03:28:02.016Z,96979.99
2018-12-16T03:30:33.350Z,96975.05
2018-12-16T03:33:00.863Z,96981.69
2018-12-16T03:35:28.787Z,96975.00
2018-12-16T03:37:57.123Z,96995.36
2018-12-16T03:40:24.549Z,96984.67
2018-12-16T03:42:52.130Z,96984.55
2018-12-16T03:45:19.599Z,96970.48
2018-12-16T03:47:47.283Z,96963.36
2018-12-16T03:50:14.897Z,96978.27
2018-12-16T03:52:42.361Z,96965.23
2018-12-16T03:55:09.968Z,96966.11
2018-12-16T03:57:38.803Z,96965.49
2018-12-16T04:00:07.252Z,96960.20
2018-12-16T04:02:34.800Z,96963.47
2018-12-16T04:05:02.386Z,96946.27
2018-12-16T04:07:32.583Z,96957.48
2018-12-16T04:10:00.580Z,96955.95
2018-12-16T04:12:28.118Z,96959.27
2018-12-16T04:14:55.551Z,96962.86
2018-12-16T04:17:22.979Z,96963.05
2018-12-16T04:19:50.485Z,96965.29
2018-12-16T04:22:18.133Z,96963.75
2018-12-16T04:24:45.595Z,96963.34
2018-12-16T04:27:18.894Z,96958.78
2018-12-16T04:29:47.167Z,96960.46
2018-12-16T04:32:15.333Z,96971.24
2018-12-16T04:34:42.912Z,96960.96
2018-12-16T04:37:10.587Z,96959.75
2018-12-16T04:39:38.103Z,96952.52
2018-12-16T04:42:07.389Z,96944.83
2018-12-16T04:44:35.173Z,96922.88
2018-12-16T04:47:02.710Z,96936.91
2018-12-16T04:49:30.183Z,96954.66
2018-12-16T04:51:57.942Z,96958.88
2018-12-16T04:54:25.392Z,96960.76
2018-12-16T04:56:53.394Z,96964.30
2018-12-16T04:59:20.835Z,96968.02
2018-12-16T05:01:48.922Z,96966.17
2018-12-16T05:04:16.449Z,96960.10
2018-12-16T05:06:43.841Z,96969.52
2018-12-16T05:09:11.290Z,96976.31
2018-12-16T05:11:38.708Z,96978.83
2018-12-16T05:14:06.120Z,96973.51
2018-12-16T05:16:33.534Z,96968.11
2018-12-16T05:19:00.959Z,96958.75
2018-12-16T05:21:28.360Z,96959.45
2018-12-16T05:23:55.786Z,96953.59
2018-12-16T05:26:23.293Z,96965.80
2018-12-16T05:28:50.697Z,96955.80
2018-12-16T05:31:18.263Z,96964.11
2018-12-16T05:33:45.654Z,96962.34
2018-12-16T05:36:13.515Z,96982.86
2018-12-16T05:38:40.945Z,96968.72
2018-12-16T05:41:08.408Z,96975.00
2018-12-16T05:43:35.895Z,96957.09
2018-12-16T05:46:03.320Z,96981.52
2018-12-16T05:48:30.736Z,96983.47
2018-12-16T05:50:58.153Z,97004.11
2018-12-16T05:53:25.558Z,96972.72
2018-12-16T05:55:52.998Z,96963.14
2018-12-16T05:58:20.441Z,96982.41
2018-12-16T06:00:47.877Z,96999.59
2018-12-16T06:03:15.301Z,96978.93
2018-12-16T06:05:42.776Z,96982.22
2018-12-16T06:08:10.144Z,96974.27
2018-12-16T06:10:37.599Z,96960.05
2018-12-16T06:13:05.017Z,96962.14
2018-12-16T06:15:32.430Z,96969.74
2018-12-16T06:17:59.840Z,96973.72
2018-12-16T06:20:27.284Z,96972.70
2018-12-16T06:22:54.699Z,96962.23
2018-12-16T06:25:22.121Z,96968.63
2018-12-16T06:27:49.541Z,96958.67
2018-12-16T06:30:16.960Z,96961.92
2018-12-16T06:32:44.383Z,96953.02
2018-12-16T06:35:11.801Z,96942.73
2018-12-16T06:37:39.319Z,96957.14
2018-12-16T06:40:06.871Z,96964.32
2018-12-16T06:42:34.300Z,96957.92
2018-12-16T06:45:01.696Z,96966.73
2018-12-16T06:47:29.352Z,96969.14
2018-12-16T06:49:56.873Z,96968.03
2018-12-16T06:52:24.310Z,96975.72
2018-12-16T06:54:51.720Z,96965.75
2018-12-16T06:57:19.128Z,96960.24
2018-12-16T06:59:46.574Z,96961.73
2018-12-16T07:02:13.981Z,96963.48
2018-12-16T07:04:41.405Z,96949.59
2018-12-16T07:07:08.823Z,96955.80
2018-12-16T07:09:36.248Z,96956.58
2018-12-16T07:12:03.696Z,96962.19
2018-12-16T07:14:31.122Z,96968.63
2018-12-16T07:16:58.600Z,96973.77
2018-12-16T07:19:26.020Z,96968.53
2018-12-16T07:21:53.436Z,96947.47
2018-12-16T07:24:20.874Z,96954.77
2018-12-16T07:26:48.293Z,96952.98
2018-12-16T07:29:15.767Z,96933.16
2018-12-16T07:31:43.210Z,96944.64
2018-12-16T07:34:10.627Z,96949.31
2018-12-16T07:36:38.035Z,96950.05
2018-12-16T07:39:05.478Z,96969.74
2018-12-16T07:41:32.952Z,96974.80
2018-12-16T07:44:00.863Z,96956.77
2018-12-16T07:46:28.795Z,96961.03
2018-12-16T07:48:57.304Z,96959.05
2018-12-16T07:51:24.705Z,96962.23
2018-12-16T07:53:52.133Z,96942.91
2018-12-16T07:56:19.596Z,96962.18
2018-12-16T07:58:47.008Z,96982.48
2018-12-16T08:01:14.430Z,96987.03
2018-12-16T08:03:42.258Z,96995.50
2018-12-16T08:06:09.862Z,96976.97
2018-12-16T08:08:37.430Z,96982.02
2018-12-16T08:11:04.871Z,96975.38
2018-12-16T08:13:32.322Z,96965.14
2018-12-16T08:16:00.224Z,96963.92
2018-12-16T08:18:27.653Z,96971.00
2018-12-16T08:20:55.043Z,96975.54
2018-12-16T08:23:22.447Z,96979.52
2018-12-16T08:25:49.862Z,96991.37
2018-12-16T08:28:17.304Z,96990.30
2018-12-16T08:30:44.717Z,96987.82
2018-12-16T08:33:12.635Z,96986.98
2018-12-16T08:35:40.106Z,96999.91
2018-12-16T08:38:07.531Z,97007.63
2018-12-16T08:40:34.946Z,97022.03
2018-12-16T08:43:02.360Z,97015.44
2018-12-16T08:45:29.783Z,97020.16
2018-12-16T08:47:57.184Z,97024.98
2018-12-16T08:50:24.753Z,97019.69
2018-12-16T08:52:52.162Z,97006.19
2018-12-16T08:55:19.598Z,96996.22
2018-12-16T08:57:47.032Z,96978.85
2018-12-16T09:00:14.479Z,96966.44
2018-12-16T09:02:41.929Z,96970.78
2018-12-16T09:05:09.332Z,96972.28
2018-12-16T09:07:37.396Z,96972.12
2018-12-16T09:10:04.161Z,96983.88
2018-12-16T09:12:32.272Z,97004.91
2018-12-16T09:15:00.856Z,97009.23
2018-12-16T09:17:29.412Z,97007.19
2018-12-16T09:19:56.938Z,97014.66
2018-12-16T09:22:24.555Z,97013.72
2018-12-16T09:24:53.071Z,97015.05
2018-12-16T09:27:21.134Z,97008.89
2018-12-16T09:29:48.703Z,97017.23
2018-12-16T09:32:16.277Z,97011.49
2018-12-16T09:34:43.711Z,96997.73
2018-12-16T09:37:11.507Z,97010.28
2018-12-16T09:39:39.315Z,96988.52
2018-12-16T09:42:06.740Z,96980.72
2018-12-16T09:44:34.284Z,96979.99
2018-12-16T09:47:01.834Z,97000.48
2018-12-16T09:49:30.049Z,97005.36
2018-12-16T09:51:57.691Z,97010.67
2018-12-16T09:54:25.349Z,97027.48
2018-12-16T09:56:52.748Z,97013.13
2018-12-16T09:59:21.224Z,97002.77
2018-12-16T10:01:49.104Z,96988.17
2018-12-16T10:04:16.659Z,96992.02
2018-12-16T10:06:44.112Z,96976.27
2018-12-16T10:09:11.523Z,96970.68
2018-12-16T10:11:38.971Z,96959.34
2018-12-16T10:14:06.391Z,96958.20
2018-12-16T10:16:33.804Z,96972.45
2018-12-16T10:19:01.433Z,96974.37
2018-12-16T10:21:28.378Z,96972.55
2018-12-16T10:23:55.343Z,96966.70
2018-12-16T10:26:22.324Z,96943.27
2018-12-16T10:28:49.379Z,96934.20
2018-12-16T10:31:16.334Z,96944.80
2018-12-16T10:33:43.300Z,96943.13
2018-12-16T10:36:10.354Z,96947.93
2018-12-16T10:38:37.367Z,96941.78
2018-12-16T10:41:04.370Z,96931.87
2018-12-16T10:43:31.360Z,96923.61
2018-12-16T10:45:58.326Z,96929.64
2018-12-16T10:48:25.418Z,96929.09
2018-12-16T10:50:52.950Z,96918.75
2018-12-16T10:53:19.955Z,96923.79
2018-12-16T10:55:47.113Z,96927.38
2018-12-16T10:58:14.258Z,96922.73
2018-12-16T11:00:46.942Z,96922.91
2018-12-16T11:03:13.883Z,96937.59
2018-12-16T11:08:23.487Z,96934.59
2018-12-16T11:10:50.716Z,96930.97
2018-12-16T11:13:18.120Z,96931.30
2018-12-16T11:15:45.145Z,96932.02
2018-12-16T11:18:12.355Z,96922.41
2018-12-16T11:20:39.291Z,96921.87
2018-12-16T11:23:06.246Z,96922.95
2018-12-16T11:25:33.214Z,96923.48
2018-12-16T11:28:00.176Z,96906.00
2018-12-16T11:30:27.165Z,96905.44
2018-12-16T11:32:54.096Z,96904.00
2018-12-16T11:35:21.037Z,96897.14
2018-12-16T11:37:48.210Z,96888.91
2018-12-16T11:40:15.199Z,96886.09
2018-12-16T11:42:42.140Z,96877.15
2018-12-16T11:45:09.117Z,96856.47
2018-12-16T11:47:36.131Z,96864.77
2018-12-16T11:50:03.149Z,96858.30
2018-12-16T11:52:30.367Z,96853.19
2018-12-16T11:54:57.989Z,96843.14
2018-12-16T11:57:26.329Z,96845.81
2018-12-16T11:59:53.405Z,96841.67
2018-12-16T12:02:20.950Z,96834.09
2018-12-16T12:04:47.984Z,96827.19
2018-12-16T12:07:17.977Z,96830.94
2018-12-16T12:09:46.942Z,96827.27
2018-12-16T12:12:14.799Z,96825.13
2018-12-16T12:14:42.589Z,96818.79
2018-12-16T12:17:11.231Z,96813.97
2018-12-16T12:19:39.050Z,96811.83
2018-12-16T12:22:06.846Z,96817.62
2018-12-16T12:24:35.260Z,96821.45
2018-12-16T12:27:02.821Z,96828.39
2018-12-16T12:29:30.316Z,96832.14
2018-12-16T12:31:57.829Z,96824.02
2018-12-16T12:34:24.956Z,96829.50
2018-12-16T12:36:53.583Z,96828.88
2018-12-16T12:39:22.437Z,96824.41
2018-12-16T12:41:49.886Z,96817.64
2018-12-16T12:44:17.316Z,96809.56
2018-12-16T12:46:44.793Z,96801.68
2018-12-16T12:49:12.205Z,96783.00
2018-12-16T12:51:39.621Z,96774.50
2018-12-16T12:54:07.217Z,96776.92
2018-12-16T12:56:34.614Z,96782.56
2018-12-16T12:59:03.207Z,96784.10
2018-12-16T13:01:30.708Z,96783.60
2018-12-16T13:03:58.176Z,96789.32
2018-12-16T13:06:25.670Z,96795.40
2018-12-16T13:08:53.122Z,96795.58
2018-12-16T13:11:20.559Z,96789.81
2018-12-16T13:13:48.106Z,96795.27
2018-12-16T13:16:15.574Z,96784.55
2018-12-16T13:18:43.015Z,96781.58
2018-12-16T13:21:11.377Z,96783.03
2018-12-16T13:23:38.834Z,96781.55
2018-12-16T13:26:06.350Z,96774.19
2018-12-16T13:28:33.759Z,96773.22
2018-12-16T13:31:01.199Z,96783.05
2018-12-16T13:33:28.651Z,96783.58
2018-12-16T13:35:56.059Z,96792.22
2018-12-16T13:38:23.464Z,96779.23
2018-12-16T13:40:50.887Z,96779.46
2018-12-16T13:43:18.655Z,96791.13
2018-12-16T13:45:46.049Z,96787.22
2018-12-16T13:48:13.516Z,96782.58
2018-12-16T13:50:40.902Z,96770.20
2018-12-16T13:53:08.488Z,96762.50
2018-12-16T13:55:40.811Z,96767.34
2018-12-16T13:58:03.564Z,96768.06
2018-12-16T14:00:31.017Z,96758.86
2018-12-16T14:02:58.655Z,96766.98
2018-12-16T14:05:25.702Z,96771.08
2018-12-16T14:07:53.105Z,96767.59
2018-12-16T14:10:20.564Z,96748.45
2018-12-16T14:12:47.979Z,96748.14
2018-12-16T14:15:15.389Z,96753.48
2018-12-16T14:17:42.803Z,96752.48
2018-12-16T14:20:10.255Z,96750.23
2018-12-16T14:22:37.699Z,96745.54
2018-12-16T14:25:05.875Z,96734.30
2018-12-16T14:27:33.267Z,96740.34
2018-12-16T14:30:01.236Z,96745.13
2018-12-16T14:32:28.779Z,96754.43
2018-12-16T14:34:55.759Z,96761.16
2018-12-16T14:37:22.761Z,96767.20
2018-12-16T14:39:49.746Z,96771.05
2018-12-16T14:42:16.874Z,96766.66
2018-12-16T14:44:43.829Z,96768.75
2018-12-16T14:47:10.820Z,96773.89
2018-12-16T14:49:37.763Z,96783.80
2018-12-16T14:52:04.784Z,96786.83
2018-12-16T14:54:31.759Z,96783.97
2018-12-16T14:56:59.287Z,96772.64
2018-12-16T15:01:58.518Z,96780.40
2018-12-16T15:04:25.474Z,96784.77
2018-12-16T15:06:52.435Z,96769.37
2018-12-16T15:09:19.387Z,96759.61
2018-12-16T15:11:46.353Z,96766.73
2018-12-16T15:14:13.313Z,96764.02
2018-12-16T15:16:40.306Z,96766.01
2018-12-16T15:19:08.354Z,96767.80
2018-12-16T15:21:35.313Z,96766.44
2018-12-16T15:24:02.284Z,96767.31
2018-12-16T15:26:29.230Z,96772.98
2018-12-16T15:28:56.192Z,96771.98
2018-12-16T15:31:23.134Z,96771.84
2018-12-16T15:33:50.070Z,96758.47
2018-12-16T15:36:17.058Z,96757.00
2018-12-16T15:38:44.059Z,96760.22
2018-12-16T15:41:11.019Z,96763.77
2018-12-16T15:43:37.971Z,96764.13
2018-12-16T15:46:04.941Z,96760.49
2018-12-16T15:48:31.911Z,96755.64
2018-12-16T15:50:58.921Z,96763.56
2018-12-16T15:53:26.417Z,96762.93
2018-12-16T15:55:53.413Z,96758.55
2018-12-16T15:58:20.541Z,96754.70
2018-12-16T16:03:23.422Z,96761.11
2018-12-16T16:08:16.520Z,96762.88
2018-12-16T16:10:43.222Z,96770.63
2018-12-16T16:13:10.171Z,96769.73
2018-12-16T16:15:37.224Z,96767.26
2018-12-16T16:18:04.269Z,96766.16
2018-12-16T16:20:34.122Z,96771.11
2018-12-16T16:23:01.233Z,96773.10
2018-12-16T16:25:28.210Z,96777.59
2018-12-16T16:27:55.186Z,96785.66
2018-12-16T16:30:22.145Z,96772.64
2018-12-16T16:32:49.228Z,96766.59
2018-12-16T16:35:17.173Z,96777.27
2018-12-16T16:37:44.161Z,96773.50
2018-12-16T16:40:11.171Z,96776.68
2018-12-16T16:42:38.651Z,96778.13
2018-12-16T16:45:05.618Z,96779.24
2018-12-16T16:47:32.742Z,96779.78
2018-12-16T16:49:59.688Z,96783.00
2018-12-16T16:52:26.659Z,96774.98
2018-12-16T16:54:53.612Z,96773.39
2018-12-16T16:57:20.568Z,96784.70
2018-12-16T16:59:47.578Z,96792.29
2018-12-16T17:02:14.580Z,96793.17
2018-12-16T17:07:17.602Z,96792.33
2018-12-16T17:09:44.584Z,96797.06
2018-12-16T17:12:11.654Z,96794.09
2018-12-16T17:14:38.644Z,96801.09
2018-12-16T17:17:05.716Z,96800.53
2018-12-16T17:19:32.679Z,96796.94
2018-12-16T17:21:59.640Z,96804.92
2018-12-16T17:24:26.603Z,96802.44
2018-12-16T17:29:27.019Z,96805.75
2018-12-16T17:31:53.969Z,96807.64
2018-12-16T17:34:20.938Z,96816.64
2018-12-16T17:36:48.010Z,96813.38
2018-12-16T17:39:15.168Z,96821.44
2018-12-16T17:41:42.235Z,96815.03
2018-12-16T17:44:09.210Z,96821.00
2018-12-16T17:46:36.160Z,96821.10
2018-12-16T17:49:03.098Z,96821.13
2018-12-16T17:51:30.256Z,96825.80
2018-12-16T17:53:57.256Z,96824.08
2018-12-16T17:56:24.306Z,96832.80
2018-12-16T17:58:51.310Z,96830.53
2018-12-16T18:01:18.292Z,96831.18
2018-12-16T18:03:45.428Z,96837.30
2018-12-16T18:06:12.629Z,96848.60
2018-12-16T18:08:39.651Z,96842.73
2018-12-16T18:11:07.533Z,96846.46
2018-12-16T18:16:10.498Z,96847.70
2018-12-16T18:18:37.525Z,96855.93
2018-12-16T18:21:04.475Z,96859.91
2018-12-16T18:23:31.572Z,96860.45
2018-12-16T18:25:58.515Z,96866.06
2018-12-16T18:28:25.593Z,96859.61
2018-12-16T18:30:52.601Z,96861.99
2018-12-16T18:33:19.682Z,96862.93
2018-12-16T18:35:46.718Z,96860.03
2018-12-16T18:38:14.885Z,96865.52
2018-12-16T18:40:42.038Z,96866.70
2018-12-16T18:43:11.164Z,96876.77
2018-12-16T18:45:38.233Z,96877.91
2018-12-16T18:48:05.191Z,96883.00
2018-12-16T18:50:35.035Z,96873.58
2018-12-16T18:53:03.056Z,96872.62
2018-12-16T18:55:30.410Z,96881.56
2018-12-16T18:57:58.943Z,96881.64
2018-12-16T19:00:25.931Z,96886.68
2018-12-16T19:02:53.228Z,96881.98
2018-12-16T19:05:20.370Z,96875.71
2018-12-16T19:07:47.544Z,96875.31
2018-12-16T19:10:16.142Z,96879.97
2018-12-16T19:12:44.235Z,96876.36
2018-12-16T19:15:13.010Z,96884.94
2018-12-16T19:17:41.992Z,96879.80
2018-12-16T19:20:09.147Z,96878.08
2018-12-16T19:22:37.450Z,96879.84
2018-12-16T19:25:12.478Z,96886.91
2018-12-16T19:27:39.767Z,96889.22
2018-12-16T19:30:08.129Z,96886.66
2018-12-16T19:32:35.199Z,96885.95
2018-12-16T19:35:02.366Z,96881.52
2018-12-16T19:37:29.369Z,96884.17
2018-12-16T19:39:56.677Z,96871.91
2018-12-16T19:42:23.655Z,96877.68
2018-12-16T19:44:50.632Z,96875.25
2018-12-16T19:47:17.587Z,96871.45
2018-12-16T19:49:44.543Z,96885.73
2018-12-16T19:52:11.522Z,96880.62
2018-12-16T19:54:38.487Z,96879.03
2018-12-16T19:59:39.850Z,96879.67
2018-12-16T20:02:07.770Z,96882.81
2018-12-16T20:04:40.418Z,96886.44
2018-12-16T20:07:07.414Z,96883.13
2018-12-16T20:09:34.373Z,96883.52
2018-12-16T20:12:01.350Z,96885.31
2018-12-16T20:14:28.358Z,96880.70
2018-12-16T20:16:55.387Z,96882.89
2018-12-16T20:20:31.618Z,96887.67
2018-12-16T20:22:58.580Z,96882.34
2018-12-16T20:25:25.998Z,96890.83
2018-12-16T20:27:53.413Z,96894.66
2018-12-16T20:30:21.161Z,96890.81
2018-12-16T20:32:48.109Z,96892.18
2018-12-16T20:35:15.571Z,96895.73
2018-12-16T20:37:42.983Z,96897.09
2018-12-16T20:40:10.419Z,96903.71
2018-12-16T20:42:37.380Z,96901.13
2018-12-16T20:45:05.998Z,96901.58
2018-12-16T20:47:33.423Z,96901.70
2018-12-16T20:50:00.855Z,96896.12
2018-12-16T20:52:27.859Z,96892.98
2018-12-16T20:54:54.808Z,96897.31
2018-12-16T20:57:21.762Z,96899.63
2018-12-16T20:59:50.749Z,96890.63
2018-12-16T21:02:16.246Z,96893.95
2018-12-16T21:04:43.712Z,96892.36
2018-12-16T21:07:11.124Z,96894.06
2018-12-16T21:09:38.619Z,96905.20
2018-12-16T21:12:06.027Z,96905.91
2018-12-16T21:14:38.647Z,96905.04
2018-12-16T21:17:11.331Z,96906.50
2018-12-16T21:19:38.749Z,96909.11
2018-12-16T21:22:05.717Z,96904.19
2018-12-16T21:24:32.658Z,96911.12
2018-12-16T21:27:00.310Z,96909.23
2018-12-16T21:29:27.243Z,96910.70
2018-12-16T21:31:54.379Z,96906.73
2018-12-16T21:34:21.359Z,96913.54
2018-12-16T21:36:48.859Z,96912.60
2018-12-16T21:39:15.846Z,96911.12
2018-12-16T21:41:42.823Z,96909.22
2018-12-16T21:44:09.774Z,96914.26
2018-12-16T21:46:36.799Z,96910.12
2018-12-16T21:49:04.239Z,96914.91
2018-12-16T21:51:31.523Z,96911.47
2018-12-16T21:53:58.469Z,96911.17
2018-12-16T21:56:25.415Z,96913.02
2018-12-16T21:58:52.675Z,96913.36
2018-12-16T22:01:19.615Z,96916.75
2018-12-16T22:03:46.595Z,96924.22
2018-12-16T22:06:14.069Z,96926.22
2018-12-16T22:08:41.524Z,96931.67
2018-12-16T22:11:09.304Z,96931.55
2018-12-16T22:13:36.720Z,96935.91
2018-12-16T22:16:04.368Z,96933.67
2018-12-16T22:18:32.048Z,96935.27
2018-12-16T22:20:59.463Z,96933.02
2018-12-16T22:23:27.284Z,96936.45
2018-12-16T22:25:54.704Z,96939.41
2018-12-16T22:28:23.768Z,96944.16
2018-12-16T22:30:49.620Z,96949.02
2018-12-16T22:33:16.609Z,96946.51
2018-12-16T22:35:48.957Z,96947.72
2018-12-16T22:38:16.769Z,96950.90
2018-12-16T22:40:43.711Z,96949.02
2018-12-16T22:43:11.149Z,96942.19
2018-12-16T22:45:38.539Z,96945.50
2018-12-16T22:48:05.947Z,96940.11
2018-12-16T22:50:34.181Z,96943.78
2018-12-16T22:53:01.573Z,96948.12
2018-12-16T22:55:28.537Z,96950.25
2018-12-16T22:57:55.960Z,96950.63
2018-12-16T23:00:22.906Z,96944.97
2018-12-16T23:02:49.856Z,96959.63
2018-12-16T23:05:16.812Z,96957.30
2018-12-16T23:07:43.771Z,96955.46
2018-12-16T23:10:10.768Z,96957.44
2018-12-16T23:12:38.264Z,96963.34
2018-12-16T23:15:05.208Z,96955.34
2018-12-16T23:17:32.190Z,96958.06
2018-12-16T23:20:04.833Z,96956.18
2018-12-16T23:22:31.766Z,96961.81
2018-12-16T23:24:58.722Z,96961.64
2018-12-16T23:27:25.694Z,96963.78
2018-12-16T23:29:52.865Z,96967.55
2018-12-16T23:32:19.847Z,96973.36
2018-12-16T23:34:46.784Z,96972.11
2018-12-16T23:37:13.773Z,96979.41
2018-12-16T23:39:40.718Z,96984.16
2018-12-16T23:42:07.674Z,96981.95
2018-12-16T23:44:34.612Z,96981.67
2018-12-16T23:47:01.564Z,96979.62
2018-12-16T23:49:28.616Z,96980.06
2018-12-16T23:51:55.598Z,96978.80
2018-12-16T23:54:22.625Z,96981.00
2018-12-16T23:56:49.582Z,96984.30
2018-12-16T23:59:16.537Z,96974.55
